sensor_id;sensor_type;location;lat;lon;timestamp;P1;durP1;ratioP1;P2;durP2;ratioP2
74974;SDS011;64061;50.836;19.138;2022-10-15T00:01:50;9.65;;;6.00;;
74974;SDS011;64061;50.836;19.138;2022-10-15T00:04:55;11.27;;;6.57;;
74974;SDS011;64061;50.836;19.138;2022-10-15T00:07:59;9.38;;;5.63;;
74974;SDS011;64061;50.836;19.138;2022-10-15T00:11:03;9.50;;;6.28;;
74974;SDS011;64061;50.836;19.138;2022-10-15T00:14:10;9.55;;;6.00;;
74974;SDS011;64061;50.836;19.138;2022-10-15T00:17:13;9.52;;;6.20;;
74974;SDS011;64061;50.836;19.138;2022-10-15T00:20:18;9.93;;;6.53;;
74974;SDS011;64061;50.836;19.138;2022-10-15T00:23:22;9.75;;;6.15;;
74974;SDS011;64061;50.836;19.138;2022-10-15T00:26:26;9.57;;;6.28;;
74974;SDS011;64061;50.836;19.138;2022-10-15T00:29:31;8.70;;;6.00;;
74974;SDS011;64061;50.836;19.138;2022-10-15T00:32:34;11.35;;;6.40;;
74974;SDS011;64061;50.836;19.138;2022-10-15T00:35:41;9.10;;;5.73;;
74974;SDS011;64061;50.836;19.138;2022-10-15T00:38:45;9.65;;;5.47;;
74974;SDS011;64061;50.836;19.138;2022-10-15T00:41:49;9.27;;;5.40;;
74974;SDS011;64061;50.836;19.138;2022-10-15T00:44:53;8.15;;;5.70;;
74974;SDS011;64061;50.836;19.138;2022-10-15T00:47:59;8.93;;;5.53;;
74974;SDS011;64061;50.836;19.138;2022-10-15T00:51:04;9.50;;;5.93;;
74974;SDS011;64061;50.836;19.138;2022-10-15T00:54:07;9.43;;;6.30;;
74974;SDS011;64061;50.836;19.138;2022-10-15T00:57:12;10.73;;;6.65;;
74974;SDS011;64061;50.836;19.138;2022-10-15T01:00:16;9.90;;;6.22;;
74974;SDS011;64061;50.836;19.138;2022-10-15T01:03:21;9.75;;;6.03;;
74974;SDS011;64061;50.836;19.138;2022-10-15T01:06:27;9.50;;;5.73;;
74974;SDS011;64061;50.836;19.138;2022-10-15T01:09:31;9.48;;;6.13;;
74974;SDS011;64061;50.836;19.138;2022-10-15T01:12:38;10.02;;;5.82;;
74974;SDS011;64061;50.836;19.138;2022-10-15T01:16:01;9.10;;;5.95;;
74974;SDS011;64061;50.836;19.138;2022-10-15T01:19:22;9.25;;;5.90;;
74974;SDS011;64061;50.836;19.138;2022-10-15T01:22:50;9.83;;;5.80;;
74974;SDS011;64061;50.836;19.138;2022-10-15T01:26:34;8.75;;;5.53;;
74974;SDS011;64061;50.836;19.138;2022-10-15T01:33:42;8.25;;;5.45;;
74974;SDS011;64061;50.836;19.138;2022-10-15T01:36:56;7.68;;;5.72;;
74974;SDS011;64061;50.836;19.138;2022-10-15T01:40:12;9.47;;;5.60;;
74974;SDS011;64061;50.836;19.138;2022-10-15T01:43:25;9.10;;;5.38;;
74974;SDS011;64061;50.836;19.138;2022-10-15T01:46:56;9.90;;;5.45;;
74974;SDS011;64061;50.836;19.138;2022-10-15T01:50:05;9.07;;;6.00;;
74974;SDS011;64061;50.836;19.138;2022-10-15T01:53:15;10.15;;;5.80;;
74974;SDS011;64061;50.836;19.138;2022-10-15T01:56:28;8.83;;;6.13;;
74974;SDS011;64061;50.836;19.138;2022-10-15T01:59:36;15.43;;;5.43;;
74974;SDS011;64061;50.836;19.138;2022-10-15T02:02:41;8.65;;;5.85;;
74974;SDS011;64061;50.836;19.138;2022-10-15T02:05:45;8.80;;;5.65;;
74974;SDS011;64061;50.836;19.138;2022-10-15T02:09:02;8.65;;;5.63;;
74974;SDS011;64061;50.836;19.138;2022-10-15T02:12:21;9.90;;;6.17;;
74974;SDS011;64061;50.836;19.138;2022-10-15T02:15:40;8.13;;;5.75;;
74974;SDS011;64061;50.836;19.138;2022-10-15T02:19:02;8.82;;;5.45;;
74974;SDS011;64061;50.836;19.138;2022-10-15T02:22:14;8.27;;;5.50;;
74974;SDS011;64061;50.836;19.138;2022-10-15T02:25:24;8.15;;;5.22;;
74974;SDS011;64061;50.836;19.138;2022-10-15T02:28:30;7.93;;;5.37;;
74974;SDS011;64061;50.836;19.138;2022-10-15T02:31:39;8.77;;;5.63;;
74974;SDS011;64061;50.836;19.138;2022-10-15T02:34:48;10.30;;;6.03;;
74974;SDS011;64061;50.836;19.138;2022-10-15T02:37:56;8.80;;;5.30;;
74974;SDS011;64061;50.836;19.138;2022-10-15T02:41:07;8.90;;;5.57;;
74974;SDS011;64061;50.836;19.138;2022-10-15T02:44:12;9.33;;;5.63;;
74974;SDS011;64061;50.836;19.138;2022-10-15T02:47:16;9.95;;;5.65;;
74974;SDS011;64061;50.836;19.138;2022-10-15T02:50:22;9.93;;;5.55;;
74974;SDS011;64061;50.836;19.138;2022-10-15T02:53:25;8.82;;;5.85;;
74974;SDS011;64061;50.836;19.138;2022-10-15T02:56:29;8.57;;;5.55;;
74974;SDS011;64061;50.836;19.138;2022-10-15T02:59:33;8.70;;;5.60;;
74974;SDS011;64061;50.836;19.138;2022-10-15T03:02:36;8.48;;;5.82;;
74974;SDS011;64061;50.836;19.138;2022-10-15T03:05:42;10.05;;;6.45;;
74974;SDS011;64061;50.836;19.138;2022-10-15T03:08:47;10.38;;;5.95;;
74974;SDS011;64061;50.836;19.138;2022-10-15T03:11:50;9.15;;;5.72;;
74974;SDS011;64061;50.836;19.138;2022-10-15T03:14:54;9.03;;;5.73;;
74974;SDS011;64061;50.836;19.138;2022-10-15T03:17:58;8.50;;;5.53;;
74974;SDS011;64061;50.836;19.138;2022-10-15T03:21:03;8.13;;;5.22;;
74974;SDS011;64061;50.836;19.138;2022-10-15T03:24:07;9.85;;;5.85;;
74974;SDS011;64061;50.836;19.138;2022-10-15T03:27:10;9.15;;;5.65;;
74974;SDS011;64061;50.836;19.138;2022-10-15T03:30:14;9.23;;;5.27;;
74974;SDS011;64061;50.836;19.138;2022-10-15T03:33:20;7.97;;;5.32;;
74974;SDS011;64061;50.836;19.138;2022-10-15T03:36:28;9.77;;;5.88;;
74974;SDS011;64061;50.836;19.138;2022-10-15T03:39:32;9.63;;;5.93;;
74974;SDS011;64061;50.836;19.138;2022-10-15T03:42:39;11.00;;;6.38;;
74974;SDS011;64061;50.836;19.138;2022-10-15T03:45:44;9.80;;;6.53;;
74974;SDS011;64061;50.836;19.138;2022-10-15T03:48:52;8.90;;;5.88;;
74974;SDS011;64061;50.836;19.138;2022-10-15T03:51:57;9.05;;;5.80;;
74974;SDS011;64061;50.836;19.138;2022-10-15T03:55:01;9.30;;;6.32;;
74974;SDS011;64061;50.836;19.138;2022-10-15T03:58:05;9.43;;;6.13;;
74974;SDS011;64061;50.836;19.138;2022-10-15T04:01:14;10.53;;;6.13;;
74974;SDS011;64061;50.836;19.138;2022-10-15T04:04:19;9.60;;;6.22;;
74974;SDS011;64061;50.836;19.138;2022-10-15T04:07:25;9.18;;;6.30;;
74974;SDS011;64061;50.836;19.138;2022-10-15T04:10:29;9.82;;;6.35;;
74974;SDS011;64061;50.836;19.138;2022-10-15T04:13:32;10.35;;;6.38;;
74974;SDS011;64061;50.836;19.138;2022-10-15T04:16:36;8.40;;;5.70;;
74974;SDS011;64061;50.836;19.138;2022-10-15T04:19:47;9.10;;;6.22;;
74974;SDS011;64061;50.836;19.138;2022-10-15T04:22:52;8.45;;;5.78;;
74974;SDS011;64061;50.836;19.138;2022-10-15T04:25:57;10.75;;;6.38;;
74974;SDS011;64061;50.836;19.138;2022-10-15T04:29:03;8.05;;;5.85;;
74974;SDS011;64061;50.836;19.138;2022-10-15T04:32:07;7.90;;;5.57;;
74974;SDS011;64061;50.836;19.138;2022-10-15T04:35:14;9.73;;;6.15;;
74974;SDS011;64061;50.836;19.138;2022-10-15T04:38:41;8.85;;;5.60;;
74974;SDS011;64061;50.836;19.138;2022-10-15T04:41:45;8.50;;;5.88;;
74974;SDS011;64061;50.836;19.138;2022-10-15T04:44:56;10.60;;;5.95;;
74974;SDS011;64061;50.836;19.138;2022-10-15T04:47:59;9.17;;;5.53;;
74974;SDS011;64061;50.836;19.138;2022-10-15T04:51:04;6.88;;;4.82;;
74974;SDS011;64061;50.836;19.138;2022-10-15T04:54:26;9.38;;;6.18;;
74974;SDS011;64061;50.836;19.138;2022-10-15T04:57:35;10.55;;;5.88;;
74974;SDS011;64061;50.836;19.138;2022-10-15T05:00:39;9.05;;;6.05;;
74974;SDS011;64061;50.836;19.138;2022-10-15T05:04:01;9.37;;;5.73;;
74974;SDS011;64061;50.836;19.138;2022-10-15T05:07:07;10.30;;;6.00;;
74974;SDS011;64061;50.836;19.138;2022-10-15T05:10:12;10.32;;;5.97;;
74974;SDS011;64061;50.836;19.138;2022-10-15T05:13:16;8.63;;;5.70;;
74974;SDS011;64061;50.836;19.138;2022-10-15T05:16:20;8.23;;;5.93;;
74974;SDS011;64061;50.836;19.138;2022-10-15T05:19:26;8.07;;;5.50;;
74974;SDS011;64061;50.836;19.138;2022-10-15T05:22:29;8.30;;;5.80;;
74974;SDS011;64061;50.836;19.138;2022-10-15T05:25:35;7.95;;;5.45;;
74974;SDS011;64061;50.836;19.138;2022-10-15T05:28:39;9.00;;;5.80;;
74974;SDS011;64061;50.836;19.138;2022-10-15T05:31:44;9.27;;;5.80;;
74974;SDS011;64061;50.836;19.138;2022-10-15T05:34:51;9.03;;;5.50;;
74974;SDS011;64061;50.836;19.138;2022-10-15T05:37:55;8.98;;;5.93;;
74974;SDS011;64061;50.836;19.138;2022-10-15T05:40:59;10.57;;;5.95;;
74974;SDS011;64061;50.836;19.138;2022-10-15T05:44:03;9.82;;;5.85;;
74974;SDS011;64061;50.836;19.138;2022-10-15T05:47:07;8.45;;;5.35;;
74974;SDS011;64061;50.836;19.138;2022-10-15T05:50:14;8.70;;;5.00;;
74974;SDS011;64061;50.836;19.138;2022-10-15T05:53:20;7.85;;;5.05;;
74974;SDS011;64061;50.836;19.138;2022-10-15T05:56:29;9.57;;;5.57;;
74974;SDS011;64061;50.836;19.138;2022-10-15T05:59:32;7.72;;;5.35;;
74974;SDS011;64061;50.836;19.138;2022-10-15T06:02:36;7.13;;;5.20;;
74974;SDS011;64061;50.836;19.138;2022-10-15T06:05:39;8.60;;;5.30;;
74974;SDS011;64061;50.836;19.138;2022-10-15T06:08:43;9.07;;;5.68;;
74974;SDS011;64061;50.836;19.138;2022-10-15T06:11:48;9.05;;;4.95;;
74974;SDS011;64061;50.836;19.138;2022-10-15T06:14:52;8.20;;;5.45;;
74974;SDS011;64061;50.836;19.138;2022-10-15T06:17:55;7.47;;;5.60;;
74974;SDS011;64061;50.836;19.138;2022-10-15T06:20:58;7.93;;;4.90;;
74974;SDS011;64061;50.836;19.138;2022-10-15T06:24:02;9.77;;;5.65;;
74974;SDS011;64061;50.836;19.138;2022-10-15T06:27:12;9.02;;;5.97;;
74974;SDS011;64061;50.836;19.138;2022-10-15T06:30:15;8.90;;;5.32;;
74974;SDS011;64061;50.836;19.138;2022-10-15T06:33:19;8.30;;;5.65;;
74974;SDS011;64061;50.836;19.138;2022-10-15T06:36:23;8.50;;;5.50;;
74974;SDS011;64061;50.836;19.138;2022-10-15T06:39:27;8.23;;;5.60;;
74974;SDS011;64061;50.836;19.138;2022-10-15T06:42:31;17.35;;;5.60;;
74974;SDS011;64061;50.836;19.138;2022-10-15T06:45:35;15.93;;;6.07;;
74974;SDS011;64061;50.836;19.138;2022-10-15T06:48:46;9.30;;;5.53;;
74974;SDS011;64061;50.836;19.138;2022-10-15T06:51:50;11.03;;;5.83;;
74974;SDS011;64061;50.836;19.138;2022-10-15T06:54:54;10.82;;;5.50;;
74974;SDS011;64061;50.836;19.138;2022-10-15T06:57:59;9.90;;;5.70;;
74974;SDS011;64061;50.836;19.138;2022-10-15T07:01:04;10.52;;;5.45;;
74974;SDS011;64061;50.836;19.138;2022-10-15T07:04:09;8.65;;;5.82;;
74974;SDS011;64061;50.836;19.138;2022-10-15T07:07:18;11.53;;;5.13;;
74974;SDS011;64061;50.836;19.138;2022-10-15T07:10:22;6.97;;;5.03;;
74974;SDS011;64061;50.836;19.138;2022-10-15T07:13:31;7.60;;;4.88;;
74974;SDS011;64061;50.836;19.138;2022-10-15T07:16:35;8.60;;;5.38;;
74974;SDS011;64061;50.836;19.138;2022-10-15T07:19:39;7.75;;;4.70;;
74974;SDS011;64061;50.836;19.138;2022-10-15T07:22:43;8.30;;;5.10;;
74974;SDS011;64061;50.836;19.138;2022-10-15T07:25:47;7.13;;;4.60;;
74974;SDS011;64061;50.836;19.138;2022-10-15T07:28:54;6.78;;;5.15;;
74974;SDS011;64061;50.836;19.138;2022-10-15T07:31:57;8.48;;;5.07;;
74974;SDS011;64061;50.836;19.138;2022-10-15T07:35:01;7.68;;;4.60;;
74974;SDS011;64061;50.836;19.138;2022-10-15T07:38:05;9.97;;;5.07;;
74974;SDS011;64061;50.836;19.138;2022-10-15T07:41:09;7.00;;;4.55;;
74974;SDS011;64061;50.836;19.138;2022-10-15T07:44:20;7.73;;;4.77;;
74974;SDS011;64061;50.836;19.138;2022-10-15T07:47:23;9.20;;;4.88;;
74974;SDS011;64061;50.836;19.138;2022-10-15T07:51:24;7.78;;;4.40;;
74974;SDS011;64061;50.836;19.138;2022-10-15T07:54:48;6.70;;;4.17;;
74974;SDS011;64061;50.836;19.138;2022-10-15T07:57:55;7.97;;;4.68;;
74974;SDS011;64061;50.836;19.138;2022-10-15T08:01:01;7.75;;;4.75;;
74974;SDS011;64061;50.836;19.138;2022-10-15T08:04:07;8.02;;;4.15;;
74974;SDS011;64061;50.836;19.138;2022-10-15T08:07:11;8.77;;;4.70;;
74974;SDS011;64061;50.836;19.138;2022-10-15T08:10:15;11.67;;;5.20;;
74974;SDS011;64061;50.836;19.138;2022-10-15T08:13:20;22.63;;;6.18;;
74974;SDS011;64061;50.836;19.138;2022-10-15T08:16:25;10.07;;;4.93;;
74974;SDS011;64061;50.836;19.138;2022-10-15T08:19:31;12.98;;;5.13;;
74974;SDS011;64061;50.836;19.138;2022-10-15T08:22:35;14.73;;;5.43;;
74974;SDS011;64061;50.836;19.138;2022-10-15T08:25:38;11.00;;;4.60;;
74974;SDS011;64061;50.836;19.138;2022-10-15T08:28:45;14.63;;;5.00;;
74974;SDS011;64061;50.836;19.138;2022-10-15T08:31:50;12.65;;;4.80;;
74974;SDS011;64061;50.836;19.138;2022-10-15T08:34:57;12.15;;;7.88;;
74974;SDS011;64061;50.836;19.138;2022-10-15T08:38:02;15.63;;;8.57;;
74974;SDS011;64061;50.836;19.138;2022-10-15T08:41:17;15.47;;;9.37;;
74974;SDS011;64061;50.836;19.138;2022-10-15T08:44:28;24.35;;;9.90;;
74974;SDS011;64061;50.836;19.138;2022-10-15T08:47:39;15.95;;;9.57;;
74974;SDS011;64061;50.836;19.138;2022-10-15T08:50:49;16.45;;;9.75;;
74974;SDS011;64061;50.836;19.138;2022-10-15T08:54:03;16.23;;;9.40;;
74974;SDS011;64061;50.836;19.138;2022-10-15T08:57:16;19.80;;;9.90;;
74974;SDS011;64061;50.836;19.138;2022-10-15T09:00:37;16.08;;;8.75;;
74974;SDS011;64061;50.836;19.138;2022-10-15T09:03:49;15.52;;;9.48;;
74974;SDS011;64061;50.836;19.138;2022-10-15T09:07:09;13.57;;;8.75;;
74974;SDS011;64061;50.836;19.138;2022-10-15T09:10:26;12.48;;;8.77;;
74974;SDS011;64061;50.836;19.138;2022-10-15T09:13:43;14.73;;;9.10;;
74974;SDS011;64061;50.836;19.138;2022-10-15T09:16:56;14.40;;;9.40;;
74974;SDS011;64061;50.836;19.138;2022-10-15T09:20:13;13.70;;;9.40;;
74974;SDS011;64061;50.836;19.138;2022-10-15T09:23:26;16.33;;;9.35;;
74974;SDS011;64061;50.836;19.138;2022-10-15T09:26:32;12.75;;;9.60;;
74974;SDS011;64061;50.836;19.138;2022-10-15T09:29:54;15.63;;;9.40;;
74974;SDS011;64061;50.836;19.138;2022-10-15T09:33:07;14.85;;;9.65;;
74974;SDS011;64061;50.836;19.138;2022-10-15T09:36:25;16.80;;;9.13;;
74974;SDS011;64061;50.836;19.138;2022-10-15T09:39:42;15.23;;;9.07;;
74974;SDS011;64061;50.836;19.138;2022-10-15T09:43:02;12.55;;;9.00;;
74974;SDS011;64061;50.836;19.138;2022-10-15T09:46:07;13.63;;;8.37;;
74974;SDS011;64061;50.836;19.138;2022-10-15T09:49:13;14.38;;;9.82;;
74974;SDS011;64061;50.836;19.138;2022-10-15T09:52:28;17.05;;;9.05;;
74974;SDS011;64061;50.836;19.138;2022-10-15T09:56:02;17.55;;;9.15;;
74974;SDS011;64061;50.836;19.138;2022-10-15T09:59:17;13.85;;;9.70;;
74974;SDS011;64061;50.836;19.138;2022-10-15T10:02:23;16.00;;;10.27;;
74974;SDS011;64061;50.836;19.138;2022-10-15T10:05:29;16.08;;;10.80;;
74974;SDS011;64061;50.836;19.138;2022-10-15T10:08:39;14.07;;;9.30;;
74974;SDS011;64061;50.836;19.138;2022-10-15T10:11:52;14.13;;;9.15;;
74974;SDS011;64061;50.836;19.138;2022-10-15T10:15:01;15.30;;;10.10;;
74974;SDS011;64061;50.836;19.138;2022-10-15T10:18:16;14.07;;;9.27;;
74974;SDS011;64061;50.836;19.138;2022-10-15T10:21:23;13.85;;;9.13;;
74974;SDS011;64061;50.836;19.138;2022-10-15T10:24:33;14.38;;;9.32;;
74974;SDS011;64061;50.836;19.138;2022-10-15T10:27:41;15.73;;;9.18;;
74974;SDS011;64061;50.836;19.138;2022-10-15T10:30:52;16.27;;;10.82;;
74974;SDS011;64061;50.836;19.138;2022-10-15T10:34:05;15.50;;;9.60;;
74974;SDS011;64061;50.836;19.138;2022-10-15T10:37:09;15.13;;;9.98;;
74974;SDS011;64061;50.836;19.138;2022-10-15T10:40:20;19.35;;;11.95;;
74974;SDS011;64061;50.836;19.138;2022-10-15T10:43:33;15.52;;;9.32;;
74974;SDS011;64061;50.836;19.138;2022-10-15T10:46:40;13.63;;;9.43;;
74974;SDS011;64061;50.836;19.138;2022-10-15T10:49:43;13.70;;;9.10;;
74974;SDS011;64061;50.836;19.138;2022-10-15T10:52:49;12.07;;;8.98;;
74974;SDS011;64061;50.836;19.138;2022-10-15T10:55:55;14.05;;;8.77;;
74974;SDS011;64061;50.836;19.138;2022-10-15T10:59:01;12.98;;;9.15;;
74974;SDS011;64061;50.836;19.138;2022-10-15T11:02:15;15.50;;;8.50;;
74974;SDS011;64061;50.836;19.138;2022-10-15T11:05:21;14.60;;;8.67;;
74974;SDS011;64061;50.836;19.138;2022-10-15T11:08:30;14.10;;;8.40;;
74974;SDS011;64061;50.836;19.138;2022-10-15T11:11:48;12.00;;;8.15;;
74974;SDS011;64061;50.836;19.138;2022-10-15T11:15:16;14.63;;;8.27;;
74974;SDS011;64061;50.836;19.138;2022-10-15T11:18:37;14.85;;;8.35;;
74974;SDS011;64061;50.836;19.138;2022-10-15T11:22:02;13.00;;;8.63;;
74974;SDS011;64061;50.836;19.138;2022-10-15T11:25:33;13.10;;;7.88;;
74974;SDS011;64061;50.836;19.138;2022-10-15T11:28:51;13.57;;;8.23;;
74974;SDS011;64061;50.836;19.138;2022-10-15T11:32:11;13.55;;;8.10;;
74974;SDS011;64061;50.836;19.138;2022-10-15T11:35:55;11.77;;;7.87;;
74974;SDS011;64061;50.836;19.138;2022-10-15T11:39:25;10.02;;;7.03;;
74974;SDS011;64061;50.836;19.138;2022-10-15T11:42:52;13.52;;;7.50;;
74974;SDS011;64061;50.836;19.138;2022-10-15T11:46:03;13.93;;;7.70;;
74974;SDS011;64061;50.836;19.138;2022-10-15T11:49:24;11.63;;;7.60;;
74974;SDS011;64061;50.836;19.138;2022-10-15T11:52:55;12.43;;;7.33;;
74974;SDS011;64061;50.836;19.138;2022-10-15T11:56:29;10.80;;;6.60;;
74974;SDS011;64061;50.836;19.138;2022-10-15T11:59:42;8.98;;;6.38;;
74974;SDS011;64061;50.836;19.138;2022-10-15T12:02:54;13.73;;;6.65;;
74974;SDS011;64061;50.836;19.138;2022-10-15T12:06:09;9.43;;;6.22;;
74974;SDS011;64061;50.836;19.138;2022-10-15T12:09:22;12.73;;;6.87;;
74974;SDS011;64061;50.836;19.138;2022-10-15T12:12:33;10.65;;;7.05;;
74974;SDS011;64061;50.836;19.138;2022-10-15T12:15:51;10.55;;;5.93;;
74974;SDS011;64061;50.836;19.138;2022-10-15T12:19:12;9.32;;;6.43;;
74974;SDS011;64061;50.836;19.138;2022-10-15T12:22:30;11.38;;;6.43;;
74974;SDS011;64061;50.836;19.138;2022-10-15T12:25:40;11.70;;;6.47;;
74974;SDS011;64061;50.836;19.138;2022-10-15T12:28:47;8.45;;;5.93;;
74974;SDS011;64061;50.836;19.138;2022-10-15T12:31:53;11.45;;;6.38;;
74974;SDS011;64061;50.836;19.138;2022-10-15T12:35:03;9.40;;;6.65;;
74974;SDS011;64061;50.836;19.138;2022-10-15T12:38:22;11.52;;;6.40;;
74974;SDS011;64061;50.836;19.138;2022-10-15T12:41:36;13.43;;;5.83;;
74974;SDS011;64061;50.836;19.138;2022-10-15T12:44:42;10.68;;;6.10;;
74974;SDS011;64061;50.836;19.138;2022-10-15T12:47:52;8.40;;;5.72;;
74974;SDS011;64061;50.836;19.138;2022-10-15T12:54:42;10.85;;;5.45;;
74974;SDS011;64061;50.836;19.138;2022-10-15T12:57:53;11.23;;;6.37;;
74974;SDS011;64061;50.836;19.138;2022-10-15T13:01:03;13.43;;;6.00;;
74974;SDS011;64061;50.836;19.138;2022-10-15T13:04:09;11.88;;;5.03;;
74974;SDS011;64061;50.836;19.138;2022-10-15T13:07:15;9.32;;;5.75;;
74974;SDS011;64061;50.836;19.138;2022-10-15T13:10:18;11.63;;;5.93;;
74974;SDS011;64061;50.836;19.138;2022-10-15T13:13:26;9.17;;;5.73;;
74974;SDS011;64061;50.836;19.138;2022-10-15T13:16:34;9.18;;;5.38;;
74974;SDS011;64061;50.836;19.138;2022-10-15T13:19:38;10.77;;;5.57;;
74974;SDS011;64061;50.836;19.138;2022-10-15T13:22:51;7.18;;;5.18;;
74974;SDS011;64061;50.836;19.138;2022-10-15T13:26:09;9.93;;;5.70;;
74974;SDS011;64061;50.836;19.138;2022-10-15T13:29:19;9.97;;;5.80;;
74974;SDS011;64061;50.836;19.138;2022-10-15T13:32:26;7.22;;;4.97;;
74974;SDS011;64061;50.836;19.138;2022-10-15T13:35:36;8.48;;;5.13;;
74974;SDS011;64061;50.836;19.138;2022-10-15T13:38:42;8.50;;;5.05;;
74974;SDS011;64061;50.836;19.138;2022-10-15T13:41:53;8.18;;;4.90;;
74974;SDS011;64061;50.836;19.138;2022-10-15T13:45:15;8.70;;;4.70;;
74974;SDS011;64061;50.836;19.138;2022-10-15T13:48:21;8.07;;;5.10;;
74974;SDS011;64061;50.836;19.138;2022-10-15T13:51:30;10.23;;;5.40;;
74974;SDS011;64061;50.836;19.138;2022-10-15T13:54:38;9.25;;;4.95;;
74974;SDS011;64061;50.836;19.138;2022-10-15T13:57:43;8.45;;;5.30;;
74974;SDS011;64061;50.836;19.138;2022-10-15T14:00:48;9.70;;;5.60;;
74974;SDS011;64061;50.836;19.138;2022-10-15T14:03:58;7.68;;;5.03;;
74974;SDS011;64061;50.836;19.138;2022-10-15T14:07:15;8.13;;;5.43;;
74974;SDS011;64061;50.836;19.138;2022-10-15T14:10:29;8.50;;;5.20;;
74974;SDS011;64061;50.836;19.138;2022-10-15T14:13:33;9.50;;;5.57;;
74974;SDS011;64061;50.836;19.138;2022-10-15T14:16:46;9.20;;;4.70;;
74974;SDS011;64061;50.836;19.138;2022-10-15T14:19:51;9.32;;;5.97;;
74974;SDS011;64061;50.836;19.138;2022-10-15T14:23:22;10.82;;;5.97;;
74974;SDS011;64061;50.836;19.138;2022-10-15T14:26:29;10.57;;;5.72;;
74974;SDS011;64061;50.836;19.138;2022-10-15T14:29:36;9.57;;;5.78;;
74974;SDS011;64061;50.836;19.138;2022-10-15T14:32:44;9.27;;;5.60;;
74974;SDS011;64061;50.836;19.138;2022-10-15T14:36:01;9.20;;;6.03;;
74974;SDS011;64061;50.836;19.138;2022-10-15T14:39:24;12.35;;;5.78;;
74974;SDS011;64061;50.836;19.138;2022-10-15T14:42:33;8.18;;;5.32;;
74974;SDS011;64061;50.836;19.138;2022-10-15T14:45:41;10.98;;;5.40;;
74974;SDS011;64061;50.836;19.138;2022-10-15T14:48:59;9.23;;;5.27;;
74974;SDS011;64061;50.836;19.138;2022-10-15T14:52:06;9.55;;;5.47;;
74974;SDS011;64061;50.836;19.138;2022-10-15T14:55:18;10.20;;;5.68;;
74974;SDS011;64061;50.836;19.138;2022-10-15T14:58:35;12.40;;;5.75;;
74974;SDS011;64061;50.836;19.138;2022-10-15T15:01:40;11.43;;;5.68;;
74974;SDS011;64061;50.836;19.138;2022-10-15T15:05:13;10.30;;;5.97;;
74974;SDS011;64061;50.836;19.138;2022-10-15T15:08:23;11.23;;;5.68;;
74974;SDS011;64061;50.836;19.138;2022-10-15T15:11:28;11.23;;;6.07;;
74974;SDS011;64061;50.836;19.138;2022-10-15T15:14:33;10.35;;;6.03;;
74974;SDS011;64061;50.836;19.138;2022-10-15T15:17:36;11.60;;;6.00;;
74974;SDS011;64061;50.836;19.138;2022-10-15T15:20:39;11.63;;;6.23;;
74974;SDS011;64061;50.836;19.138;2022-10-15T15:23:45;10.70;;;5.65;;
74974;SDS011;64061;50.836;19.138;2022-10-15T15:26:50;13.07;;;6.00;;
74974;SDS011;64061;50.836;19.138;2022-10-15T15:29:54;10.48;;;6.20;;
74974;SDS011;64061;50.836;19.138;2022-10-15T15:33:00;12.00;;;5.75;;
74974;SDS011;64061;50.836;19.138;2022-10-15T15:36:03;11.97;;;6.43;;
74974;SDS011;64061;50.836;19.138;2022-10-15T15:39:12;10.77;;;6.13;;
74974;SDS011;64061;50.836;19.138;2022-10-15T15:42:21;11.15;;;5.35;;
74974;SDS011;64061;50.836;19.138;2022-10-15T15:45:29;10.25;;;6.03;;
74974;SDS011;64061;50.836;19.138;2022-10-15T15:48:35;10.00;;;5.70;;
74974;SDS011;64061;50.836;19.138;2022-10-15T15:51:39;8.87;;;5.70;;
74974;SDS011;64061;50.836;19.138;2022-10-15T15:54:43;10.18;;;6.25;;
74974;SDS011;64061;50.836;19.138;2022-10-15T15:57:48;10.18;;;5.85;;
74974;SDS011;64061;50.836;19.138;2022-10-15T16:00:53;11.52;;;6.30;;
74974;SDS011;64061;50.836;19.138;2022-10-15T16:03:56;12.10;;;6.93;;
74974;SDS011;64061;50.836;19.138;2022-10-15T16:06:59;15.07;;;7.32;;
74974;SDS011;64061;50.836;19.138;2022-10-15T16:10:03;12.93;;;7.32;;
74974;SDS011;64061;50.836;19.138;2022-10-15T16:13:09;13.98;;;7.07;;
74974;SDS011;64061;50.836;19.138;2022-10-15T16:16:14;13.88;;;7.70;;
74974;SDS011;64061;50.836;19.138;2022-10-15T16:19:17;16.73;;;7.95;;
74974;SDS011;64061;50.836;19.138;2022-10-15T16:22:21;14.70;;;8.63;;
74974;SDS011;64061;50.836;19.138;2022-10-15T16:25:24;15.35;;;8.38;;
74974;SDS011;64061;50.836;19.138;2022-10-15T16:28:30;14.95;;;9.02;;
74974;SDS011;64061;50.836;19.138;2022-10-15T16:31:35;16.87;;;9.10;;
74974;SDS011;64061;50.836;19.138;2022-10-15T16:34:38;13.57;;;8.18;;
74974;SDS011;64061;50.836;19.138;2022-10-15T16:37:42;13.63;;;8.60;;
74974;SDS011;64061;50.836;19.138;2022-10-15T16:40:46;15.38;;;8.55;;
74974;SDS011;64061;50.836;19.138;2022-10-15T16:43:49;16.97;;;8.27;;
74974;SDS011;64061;50.836;19.138;2022-10-15T16:46:54;15.30;;;8.27;;
74974;SDS011;64061;50.836;19.138;2022-10-15T16:49:57;17.90;;;9.48;;
74974;SDS011;64061;50.836;19.138;2022-10-15T16:53:01;14.73;;;9.15;;
74974;SDS011;64061;50.836;19.138;2022-10-15T16:56:05;15.48;;;8.70;;
74974;SDS011;64061;50.836;19.138;2022-10-15T16:59:11;16.43;;;9.60;;
74974;SDS011;64061;50.836;19.138;2022-10-15T17:02:16;16.83;;;9.30;;
74974;SDS011;64061;50.836;19.138;2022-10-15T17:05:20;18.40;;;10.25;;
74974;SDS011;64061;50.836;19.138;2022-10-15T17:08:23;15.90;;;9.50;;
74974;SDS011;64061;50.836;19.138;2022-10-15T17:11:37;17.13;;;9.30;;
74974;SDS011;64061;50.836;19.138;2022-10-15T17:14:44;15.50;;;8.77;;
74974;SDS011;64061;50.836;19.138;2022-10-15T17:17:53;17.60;;;8.70;;
74974;SDS011;64061;50.836;19.138;2022-10-15T17:20:56;17.95;;;9.82;;
74974;SDS011;64061;50.836;19.138;2022-10-15T17:24:03;17.45;;;9.80;;
74974;SDS011;64061;50.836;19.138;2022-10-15T17:27:09;18.75;;;9.55;;
74974;SDS011;64061;50.836;19.138;2022-10-15T17:30:13;21.13;;;10.23;;
74974;SDS011;64061;50.836;19.138;2022-10-15T17:33:18;17.02;;;9.90;;
74974;SDS011;64061;50.836;19.138;2022-10-15T17:36:21;19.45;;;11.15;;
74974;SDS011;64061;50.836;19.138;2022-10-15T17:39:25;20.73;;;10.70;;
74974;SDS011;64061;50.836;19.138;2022-10-15T17:42:28;18.67;;;9.77;;
74974;SDS011;64061;50.836;19.138;2022-10-15T17:45:34;17.75;;;9.90;;
74974;SDS011;64061;50.836;19.138;2022-10-15T17:48:39;15.63;;;8.95;;
74974;SDS011;64061;50.836;19.138;2022-10-15T17:51:43;16.30;;;9.35;;
74974;SDS011;64061;50.836;19.138;2022-10-15T17:54:48;13.65;;;8.18;;
74974;SDS011;64061;50.836;19.138;2022-10-15T17:57:54;13.82;;;8.15;;
74974;SDS011;64061;50.836;19.138;2022-10-15T18:00:58;11.52;;;7.13;;
74974;SDS011;64061;50.836;19.138;2022-10-15T18:04:03;10.93;;;6.80;;
74974;SDS011;64061;50.836;19.138;2022-10-15T18:07:07;10.30;;;6.22;;
74974;SDS011;64061;50.836;19.138;2022-10-15T18:10:11;9.48;;;6.00;;
74974;SDS011;64061;50.836;19.138;2022-10-15T18:13:15;11.38;;;6.05;;
74974;SDS011;64061;50.836;19.138;2022-10-15T18:16:19;8.87;;;5.70;;
74974;SDS011;64061;50.836;19.138;2022-10-15T18:19:25;8.98;;;5.57;;
74974;SDS011;64061;50.836;19.138;2022-10-15T18:22:29;9.05;;;5.53;;
74974;SDS011;64061;50.836;19.138;2022-10-15T18:25:34;10.82;;;5.30;;
74974;SDS011;64061;50.836;19.138;2022-10-15T18:28:39;8.57;;;5.13;;
74974;SDS011;64061;50.836;19.138;2022-10-15T18:31:44;10.40;;;7.72;;
74974;SDS011;64061;50.836;19.138;2022-10-15T18:34:49;9.93;;;5.10;;
74974;SDS011;64061;50.836;19.138;2022-10-15T18:37:53;9.52;;;5.50;;
74974;SDS011;64061;50.836;19.138;2022-10-15T18:40:59;8.38;;;4.53;;